Terminal Aerodrome Forecast
Issued by NWS

Home | Current Version | Previous Version | Text Only | Print | Product List | Glossary On
Versions: 1 2 3 4 5 6 7 8 9 10 11 12 13 14 15 16 17 18 19 20 21 22 23
000
FTUS43 KDVN 311907 AAA
TAFCID
TAF AMD
KCID 311907Z 3119/0118 18011G18KT P6SM VCSH SCT080 BKN100
     FM312200 19010KT P6SM BKN050
      TEMPO 3122/0102 5SM -TSRA OVC035CB
     FM010200 19005KT P6SM VCTS BKN035CB
     FM010400 26007KT P6SM SCT200=

USA.gov is the U.S. government's official web portal to all federal, state and local government web resources and services.